createdAt,value
2023-05-20T00:02:03.284Z,16.32
2023-05-20T00:04:32.899Z,16.41
2023-05-20T00:07:01.236Z,16.39
2023-05-20T00:09:29.626Z,16.45
2023-05-20T00:11:57.892Z,16.51
2023-05-20T00:14:26.004Z,16.52
2023-05-20T00:16:54.343Z,16.51
2023-05-20T00:19:22.501Z,16.51
2023-05-20T00:21:52.166Z,16.40
2023-05-20T00:24:20.189Z,16.46
2023-05-20T00:26:48.474Z,16.51
2023-05-20T00:29:16.508Z,16.53
2023-05-20T00:31:44.928Z,16.50
2023-05-20T00:34:13.059Z,16.52
2023-05-20T00:36:41.368Z,16.55
2023-05-20T00:39:11.038Z,16.56
2023-05-20T00:41:39.377Z,16.49
2023-05-20T00:44:07.398Z,16.50
2023-05-20T00:46:36.803Z,16.45
2023-05-20T00:49:04.990Z,16.21
2023-05-20T00:51:34.457Z,16.05
2023-05-20T00:54:03.074Z,16.08
2023-05-20T00:56:33.004Z,16.06
2023-05-20T00:59:01.160Z,15.99
2023-05-20T01:01:29.529Z,15.88
2023-05-20T01:03:57.793Z,15.83
2023-05-20T01:06:26.195Z,15.66
2023-05-20T01:08:54.189Z,15.48
2023-05-20T01:11:27.687Z,15.50
2023-05-20T01:13:59.751Z,15.43
2023-05-20T01:16:29.503Z,15.08
2023-05-20T01:18:58.880Z,14.98
2023-05-20T01:21:31.597Z,14.98
2023-05-20T01:24:01.735Z,14.70
2023-05-20T01:26:30.067Z,14.56
2023-05-20T01:28:58.178Z,14.54
2023-05-20T01:31:28.555Z,14.61
2023-05-20T01:33:58.312Z,14.49
2023-05-20T01:36:27.574Z,14.62
2023-05-20T01:38:55.974Z,14.50
2023-05-20T01:41:26.597Z,14.43
2023-05-20T01:43:54.763Z,14.40
2023-05-20T01:46:23.275Z,14.49
2023-05-20T01:48:51.434Z,14.51
2023-05-20T01:51:19.709Z,14.34
2023-05-20T01:53:47.827Z,14.36
2023-05-20T01:56:16.230Z,14.45
2023-05-20T01:58:45.660Z,14.51
2023-05-20T02:01:14.818Z,14.42
2023-05-20T02:03:44.734Z,14.29
2023-05-20T02:06:13.068Z,14.33
2023-05-20T02:08:41.249Z,14.32
2023-05-20T02:11:09.642Z,14.49
2023-05-20T02:13:38.225Z,14.53
2023-05-20T02:16:08.593Z,14.59
2023-05-20T02:18:36.659Z,14.65
2023-05-20T02:21:05.506Z,14.67
2023-05-20T02:23:33.641Z,14.68
2023-05-20T02:26:02.387Z,14.78
2023-05-20T02:28:30.529Z,14.86
2023-05-20T02:30:58.798Z,15.06
2023-05-20T02:33:29.107Z,15.21
2023-05-20T02:35:57.684Z,15.35
2023-05-20T02:38:26.523Z,15.39
2023-05-20T02:40:54.807Z,15.35
2023-05-20T02:43:22.890Z,15.43
2023-05-20T02:45:51.457Z,15.42
2023-05-20T02:48:19.555Z,15.41
2023-05-20T02:50:49.252Z,15.25
2023-05-20T02:53:17.259Z,15.15
2023-05-20T02:55:47.303Z,15.01
2023-05-20T02:58:15.488Z,14.90
2023-05-20T03:00:44.074Z,14.71
2023-05-20T03:03:13.534Z,14.61
2023-05-20T03:05:42.560Z,14.61
2023-05-20T03:08:12.583Z,14.54
2023-05-20T03:10:40.996Z,14.49
2023-05-20T03:13:11.204Z,14.46
2023-05-20T03:15:40.085Z,14.39
2023-05-20T03:18:08.566Z,14.37
2023-05-20T03:20:38.307Z,14.31
2023-05-20T03:23:08.286Z,14.26
2023-05-20T03:25:40.159Z,14.04
2023-05-20T03:28:08.213Z,13.92
2023-05-20T03:30:38.735Z,13.92
2023-05-20T03:33:07.580Z,13.63
2023-05-20T03:35:36.239Z,13.88
2023-05-20T03:38:04.716Z,13.93
2023-05-20T03:40:34.533Z,13.91
2023-05-20T03:43:03.934Z,13.88
2023-05-20T03:45:33.958Z,13.85
2023-05-20T03:48:07.095Z,13.84
2023-05-20T03:50:36.829Z,13.86
2023-05-20T03:53:04.905Z,13.85
2023-05-20T03:55:39.535Z,13.83
2023-05-20T03:58:09.325Z,13.79
2023-05-20T04:00:37.692Z,13.56
2023-05-20T04:03:05.933Z,13.55
2023-05-20T04:05:34.549Z,13.54
2023-05-20T04:08:06.268Z,13.33
2023-05-20T04:10:34.706Z,13.41
2023-05-20T04:13:02.779Z,13.27
2023-05-20T04:15:35.193Z,13.19
2023-05-20T04:18:03.836Z,13.45
2023-05-20T04:20:32.335Z,13.73
2023-05-20T04:23:00.473Z,13.77
2023-05-20T04:25:28.961Z,13.74
2023-05-20T04:27:57.727Z,13.77
2023-05-20T04:30:26.373Z,13.64
2023-05-20T04:32:55.830Z,13.65
2023-05-20T04:35:26.041Z,13.67
2023-05-20T04:37:55.830Z,13.66
2023-05-20T04:40:24.963Z,13.48
2023-05-20T04:42:54.052Z,13.47
2023-05-20T04:45:23.252Z,13.36
2023-05-20T04:47:53.242Z,13.33
2023-05-20T04:50:23.253Z,13.37
2023-05-20T04:52:51.655Z,13.63
2023-05-20T04:55:21.550Z,13.55
2023-05-20T04:57:49.775Z,13.63
2023-05-20T05:00:18.770Z,13.76
2023-05-20T05:02:47.606Z,13.74
2023-05-20T05:05:16.412Z,13.78
2023-05-20T05:07:45.838Z,13.82
2023-05-20T05:10:15.650Z,13.86
2023-05-20T05:12:43.768Z,13.82
2023-05-20T05:15:12.609Z,13.65
2023-05-20T05:17:40.943Z,13.82
2023-05-20T05:20:10.916Z,13.86
2023-05-20T05:22:41.296Z,13.90
2023-05-20T05:25:12.330Z,13.96
2023-05-20T05:27:40.882Z,13.96
2023-05-20T05:30:10.251Z,13.98
2023-05-20T05:32:38.627Z,14.04
2023-05-20T05:35:08.452Z,14.06
2023-05-20T05:37:36.803Z,14.13
2023-05-20T05:40:07.980Z,14.10
2023-05-20T05:42:37.582Z,14.05
2023-05-20T05:45:07.487Z,14.01
2023-05-20T05:47:36.413Z,14.00
2023-05-20T05:50:05.238Z,14.20
2023-05-20T05:52:34.920Z,14.05
2023-05-20T05:55:05.066Z,14.30
2023-05-20T05:57:33.385Z,14.48
2023-05-20T06:00:05.354Z,14.54
2023-05-20T06:02:46.167Z,14.65
2023-05-20T06:05:21.304Z,14.69
2023-05-20T06:07:49.662Z,14.65
2023-05-20T06:10:18.136Z,14.64
2023-05-20T06:12:46.428Z,14.75
2023-05-20T06:15:16.692Z,14.93
2023-05-20T06:17:45.140Z,15.12
2023-05-20T06:20:14.410Z,15.29
2023-05-20T06:22:42.405Z,15.37
2023-05-20T06:25:12.347Z,15.54
2023-05-20T06:27:41.488Z,15.69
2023-05-20T06:30:13.371Z,15.74
2023-05-20T06:32:42.995Z,15.79
2023-05-20T06:35:12.238Z,15.88
2023-05-20T06:37:40.411Z,15.96
2023-05-20T06:40:10.480Z,16.08
2023-05-20T06:42:38.725Z,16.22
2023-05-20T06:45:08.540Z,16.33
2023-05-20T06:47:45.333Z,16.48
2023-05-20T06:50:13.809Z,16.63
2023-05-20T06:52:41.933Z,16.71
2023-05-20T06:55:10.838Z,16.84
2023-05-20T06:57:38.821Z,16.83
2023-05-20T07:00:09.176Z,16.86
2023-05-20T07:02:41.616Z,16.95
2023-05-20T07:05:11.800Z,16.94
2023-05-20T07:07:40.756Z,17.06
2023-05-20T07:10:10.058Z,17.12
2023-05-20T07:12:38.232Z,17.22
2023-05-20T07:15:07.939Z,17.23
2023-05-20T07:17:36.544Z,17.28
2023-05-20T07:20:06.349Z,17.45
2023-05-20T07:22:35.920Z,17.51
2023-05-20T07:25:16.120Z,17.35
2023-05-20T07:27:44.646Z,17.54
2023-05-20T07:30:13.521Z,17.59
2023-05-20T07:32:43.780Z,17.62
2023-05-20T07:35:12.789Z,17.63
2023-05-20T07:37:42.367Z,17.50
2023-05-20T07:40:11.580Z,17.79
2023-05-20T07:42:39.845Z,17.97
2023-05-20T07:45:09.361Z,17.99
2023-05-20T07:47:37.529Z,17.95
2023-05-20T07:50:06.583Z,17.86
2023-05-20T07:52:54.619Z,17.84
2023-05-20T07:55:26.861Z,17.85
2023-05-20T07:57:55.877Z,17.90
2023-05-20T08:00:24.856Z,17.94
2023-05-20T08:02:53.159Z,18.00
2023-05-20T08:05:29.219Z,18.05
2023-05-20T08:07:58.163Z,18.10
2023-05-20T08:10:30.515Z,18.25
2023-05-20T08:12:59.086Z,18.34
2023-05-20T08:15:27.369Z,18.46
2023-05-20T08:17:55.497Z,18.53
2023-05-20T08:20:23.947Z,18.57
2023-05-20T08:22:51.950Z,18.62
2023-05-20T08:25:20.505Z,18.66
2023-05-20T08:27:50.123Z,18.72
2023-05-20T08:30:18.785Z,18.71
2023-05-20T08:32:48.607Z,18.80
2023-05-20T08:35:16.938Z,19.10
2023-05-20T08:37:45.040Z,19.28
2023-05-20T08:40:14.486Z,19.34
2023-05-20T08:42:43.735Z,19.41
2023-05-20T08:45:18.543Z,19.57
2023-05-20T08:47:47.555Z,19.62
2023-05-20T08:50:17.193Z,19.58
2023-05-20T08:52:46.405Z,19.68
2023-05-20T08:55:17.281Z,19.71
2023-05-20T08:57:47.181Z,19.76
2023-05-20T09:00:18.273Z,19.68
2023-05-20T09:02:47.289Z,19.87
2023-05-20T09:05:15.844Z,20.00
2023-05-20T09:07:43.927Z,20.06
2023-05-20T09:10:12.281Z,20.09
2023-05-20T09:12:40.496Z,20.24
2023-05-20T09:15:09.724Z,20.39
2023-05-20T09:17:39.717Z,20.45
2023-05-20T09:20:09.872Z,20.56
2023-05-20T09:22:39.849Z,20.68
2023-05-20T09:25:09.475Z,20.63
2023-05-20T09:27:37.691Z,20.73
2023-05-20T09:30:08.770Z,20.73
2023-05-20T09:32:36.923Z,20.84
2023-05-20T09:35:07.578Z,21.01
2023-05-20T09:37:36.820Z,21.05
2023-05-20T09:40:09.166Z,21.02
2023-05-20T09:42:41.664Z,21.12
2023-05-20T09:45:10.528Z,21.19
2023-05-20T09:47:40.611Z,21.33
2023-05-20T09:50:11.506Z,21.42
2023-05-20T09:52:40.380Z,21.58
2023-05-20T09:55:10.385Z,21.75
2023-05-20T09:57:39.002Z,21.78
2023-05-20T10:00:10.055Z,21.85
2023-05-20T10:02:45.574Z,21.82
2023-05-20T10:05:18.887Z,21.92
2023-05-20T10:08:23.283Z,21.91
2023-05-20T10:10:54.615Z,21.93
2023-05-20T10:13:33.034Z,21.89
2023-05-20T10:16:08.695Z,22.01
2023-05-20T10:18:45.572Z,22.13
2023-05-20T10:21:19.029Z,22.21
2023-05-20T10:23:47.161Z,22.32
2023-05-20T10:26:15.610Z,22.45
2023-05-20T10:28:44.472Z,22.44
2023-05-20T10:31:17.061Z,22.38
2023-05-20T10:33:46.411Z,22.37
2023-05-20T10:36:27.650Z,22.53
2023-05-20T10:38:56.419Z,22.61
2023-05-20T10:41:26.554Z,22.77
2023-05-20T10:44:02.327Z,22.82
2023-05-20T10:46:41.904Z,22.87
2023-05-20T10:49:22.295Z,22.96
2023-05-20T10:51:54.147Z,23.10
2023-05-20T10:54:23.238Z,22.98
2023-05-20T10:56:53.303Z,22.94
2023-05-20T10:59:22.570Z,22.99
2023-05-20T11:01:51.583Z,23.04
2023-05-20T11:04:20.602Z,23.12
2023-05-20T11:06:55.340Z,23.05
2023-05-20T11:09:23.636Z,23.05
2023-05-20T11:11:52.116Z,23.11
2023-05-20T11:14:20.236Z,23.17
2023-05-20T11:16:52.933Z,23.26
2023-05-20T11:19:21.592Z,23.28
2023-05-20T11:21:50.329Z,23.21
2023-05-20T11:24:26.322Z,23.16
2023-05-20T11:26:55.125Z,23.11
2023-05-20T11:29:23.326Z,23.14
2023-05-20T11:31:52.230Z,23.11
2023-05-20T11:34:23.218Z,23.11
2023-05-20T11:36:57.489Z,23.14
2023-05-20T11:39:27.912Z,23.24
2023-05-20T11:41:56.451Z,23.24
2023-05-20T11:44:25.927Z,23.27
2023-05-20T11:47:00.888Z,23.37
2023-05-20T11:49:29.173Z,23.31
2023-05-20T11:51:58.111Z,23.43
2023-05-20T11:54:27.514Z,23.54
2023-05-20T11:56:56.687Z,23.59
2023-05-20T11:59:25.377Z,23.69
2023-05-20T12:01:53.986Z,23.78
2023-05-20T12:04:22.294Z,23.90
2023-05-20T12:06:51.049Z,24.05
2023-05-20T12:09:19.074Z,24.22
2023-05-20T12:11:48.770Z,24.34
2023-05-20T12:14:16.788Z,24.51
2023-05-20T12:16:45.070Z,24.55
2023-05-20T12:19:13.173Z,24.39
2023-05-20T12:21:41.456Z,24.27
2023-05-20T12:24:10.901Z,24.24
2023-05-20T12:26:39.322Z,24.16
2023-05-20T12:29:08.706Z,23.98
2023-05-20T12:31:37.096Z,23.77
2023-05-20T12:34:05.134Z,23.80
2023-05-20T12:36:33.914Z,23.70
2023-05-20T12:39:02.018Z,23.57
2023-05-20T12:41:30.673Z,23.59
2023-05-20T12:43:58.825Z,23.46
2023-05-20T12:46:28.634Z,23.52
2023-05-20T12:48:56.956Z,23.72
2023-05-20T12:51:25.369Z,23.89
2023-05-20T12:53:53.432Z,23.93
2023-05-20T12:56:22.217Z,23.94
2023-05-20T12:58:50.254Z,24.03
2023-05-20T13:01:18.574Z,24.06
2023-05-20T13:03:48.140Z,24.15
2023-05-20T13:06:16.638Z,24.27
2023-05-20T13:08:45.318Z,24.38
2023-05-20T13:11:13.665Z,24.38
2023-05-20T13:13:41.730Z,24.33
2023-05-20T13:16:10.704Z,24.25
2023-05-20T13:18:38.925Z,24.21
2023-05-20T13:21:08.558Z,24.13
2023-05-20T13:23:36.953Z,24.04
2023-05-20T13:26:05.319Z,24.07
2023-05-20T13:28:33.518Z,24.10
2023-05-20T13:31:03.040Z,24.31
2023-05-20T13:33:31.434Z,24.38
2023-05-20T13:35:59.775Z,24.49
2023-05-20T13:38:29.203Z,24.69
2023-05-20T13:40:59.299Z,24.79
2023-05-20T13:43:28.611Z,24.82
2023-05-20T13:45:56.943Z,24.76
2023-05-20T13:48:25.008Z,24.69
2023-05-20T13:50:53.414Z,24.57
2023-05-20T13:53:21.501Z,24.46
2023-05-20T13:55:51.181Z,24.51
2023-05-20T13:58:19.263Z,24.58
2023-05-20T14:00:47.693Z,24.76
2023-05-20T14:03:16.010Z,24.79
2023-05-20T14:05:44.366Z,24.91
2023-05-20T14:08:13.546Z,25.01
2023-05-20T14:10:41.906Z,25.13
2023-05-20T14:13:11.329Z,25.21
2023-05-20T14:15:39.651Z,25.22
2023-05-20T14:18:07.773Z,25.32
2023-05-20T14:20:36.292Z,25.62
2023-05-20T14:23:04.488Z,25.81
2023-05-20T14:25:32.865Z,26.12
2023-05-20T14:28:01.102Z,26.06
2023-05-20T14:30:30.785Z,26.42
2023-05-20T14:32:59.390Z,26.46
2023-05-20T14:35:27.775Z,26.33
2023-05-20T14:37:55.917Z,26.38
2023-05-20T14:40:24.598Z,26.16
2023-05-20T14:42:52.760Z,26.20
2023-05-20T14:45:21.335Z,26.26
2023-05-20T14:47:50.874Z,26.53
2023-05-20T14:50:19.313Z,26.75
2023-05-20T14:52:47.427Z,26.84
2023-05-20T14:55:16.048Z,26.71
2023-05-20T14:57:44.292Z,26.52
2023-05-20T15:00:13.802Z,26.37
2023-05-20T15:02:42.070Z,26.18
2023-05-20T15:05:12.526Z,26.17
2023-05-20T15:07:40.818Z,26.02
2023-05-20T15:10:09.743Z,26.01
2023-05-20T15:12:37.907Z,25.89
2023-05-20T15:15:07.340Z,25.67
2023-05-20T15:17:35.638Z,25.68
2023-05-20T15:20:04.600Z,25.47
2023-05-20T15:22:33.980Z,25.53
2023-05-20T15:25:02.254Z,25.50
2023-05-20T15:27:30.590Z,25.54
2023-05-20T15:29:58.948Z,25.43
2023-05-20T15:32:27.226Z,25.30
2023-05-20T15:34:55.609Z,25.18
2023-05-20T15:37:23.985Z,24.89
2023-05-20T15:39:53.593Z,24.85
2023-05-20T15:42:21.692Z,24.85
2023-05-20T15:44:49.981Z,24.79
2023-05-20T15:47:18.152Z,24.74
2023-05-20T15:49:46.505Z,24.72
2023-05-20T15:52:14.884Z,24.74
2023-05-20T15:54:43.342Z,25.00
2023-05-20T15:57:12.704Z,25.52
2023-05-20T15:59:41.278Z,26.30
2023-05-20T16:02:09.401Z,26.84
2023-05-20T16:04:37.833Z,26.75
2023-05-20T16:07:06.388Z,26.50
2023-05-20T16:09:34.655Z,26.21
2023-05-20T16:12:03.101Z,26.38
2023-05-20T16:14:32.770Z,26.63
2023-05-20T16:17:01.056Z,27.54
2023-05-20T16:19:29.546Z,28.39
2023-05-20T16:21:57.828Z,29.16
2023-05-20T16:24:26.170Z,28.86
2023-05-20T16:26:54.645Z,28.46
2023-05-20T16:29:22.926Z,27.88
2023-05-20T16:31:52.454Z,27.34
2023-05-20T16:34:20.985Z,27.51
2023-05-20T16:36:49.169Z,27.32
2023-05-20T16:39:17.529Z,26.82
2023-05-20T16:41:45.765Z,26.53
2023-05-20T16:44:14.041Z,26.23
2023-05-20T16:46:42.125Z,25.88
2023-05-20T16:49:11.854Z,25.61
2023-05-20T16:51:39.870Z,25.15
2023-05-20T16:54:08.244Z,25.22
2023-05-20T16:56:36.974Z,25.40
2023-05-20T16:59:05.284Z,25.16
2023-05-20T17:01:33.481Z,24.71
2023-05-20T17:04:01.936Z,24.58
2023-05-20T17:06:33.971Z,24.52
2023-05-20T17:09:04.006Z,23.99
2023-05-20T17:11:32.043Z,23.98
2023-05-20T17:14:00.430Z,23.73
2023-05-20T17:16:28.992Z,23.64
2023-05-20T17:18:58.745Z,23.59
2023-05-20T17:21:26.854Z,23.49
2023-05-20T17:23:56.553Z,23.41
2023-05-20T17:26:25.182Z,23.21
2023-05-20T17:28:53.217Z,23.14
2023-05-20T17:31:21.753Z,23.20
2023-05-20T17:33:49.884Z,23.23
2023-05-20T17:36:18.345Z,23.17
2023-05-20T17:38:46.402Z,23.14
2023-05-20T17:41:17.761Z,22.87
2023-05-20T17:43:46.146Z,22.73
2023-05-20T17:46:14.692Z,22.73
2023-05-20T17:48:43.380Z,22.50
2023-05-20T17:51:11.706Z,22.32
2023-05-20T17:53:39.737Z,22.10
2023-05-20T17:56:08.452Z,22.09
2023-05-20T17:58:37.931Z,21.93
2023-05-20T18:01:06.371Z,21.94
2023-05-20T18:03:34.489Z,21.96
2023-05-20T18:06:05.509Z,21.95
2023-05-20T18:08:33.911Z,21.91
2023-05-20T18:11:02.335Z,21.90
2023-05-20T18:13:30.608Z,21.87
2023-05-20T18:16:00.568Z,21.74
2023-05-20T18:18:28.680Z,21.60
2023-05-20T18:20:57.004Z,21.53
2023-05-20T18:23:25.001Z,21.45
2023-05-20T18:25:53.278Z,21.35
2023-05-20T18:28:21.448Z,21.31
2023-05-20T18:30:50.006Z,21.32
2023-05-20T18:33:19.596Z,21.35
2023-05-20T18:35:48.067Z,21.35
2023-05-20T18:38:16.160Z,21.26
2023-05-20T18:40:44.465Z,21.22
2023-05-20T18:43:12.517Z,21.11
2023-05-20T18:45:41.176Z,20.95
2023-05-20T18:48:09.421Z,21.01
2023-05-20T18:50:39.480Z,20.96
2023-05-20T18:53:07.587Z,20.89
2023-05-20T18:55:35.837Z,20.80
2023-05-20T18:58:03.881Z,20.77
2023-05-20T19:00:32.202Z,20.69
2023-05-20T19:03:00.347Z,20.59
2023-05-20T19:05:28.821Z,20.53
2023-05-20T19:07:58.242Z,20.38
2023-05-20T19:10:28.584Z,20.31
2023-05-20T19:12:57.441Z,20.21
2023-05-20T19:15:25.729Z,20.20
2023-05-20T19:17:54.027Z,20.16
2023-05-20T19:20:22.599Z,20.09
2023-05-20T19:22:51.139Z,20.04
2023-05-20T19:25:20.877Z,19.94
2023-05-20T19:27:48.947Z,19.94
2023-05-20T19:30:17.265Z,19.95
2023-05-20T19:32:45.515Z,19.85
2023-05-20T19:35:14.245Z,19.82
2023-05-20T19:37:42.660Z,19.87
2023-05-20T19:40:12.353Z,19.77
2023-05-20T19:42:41.790Z,19.81
2023-05-20T19:45:11.439Z,19.76
2023-05-20T19:47:39.926Z,19.73
2023-05-20T19:50:09.534Z,19.67
2023-05-20T19:52:38.316Z,19.67
2023-05-20T19:55:06.927Z,19.66
2023-05-20T19:57:34.928Z,19.60
2023-05-20T20:00:06.593Z,19.54
2023-05-20T20:02:41.458Z,19.57
2023-05-20T20:05:10.741Z,19.57
2023-05-20T20:07:38.877Z,19.52
2023-05-20T20:10:08.693Z,19.54
2023-05-20T20:12:36.778Z,19.40
2023-05-20T20:15:08.912Z,19.37
2023-05-20T20:17:37.314Z,19.38
2023-05-20T20:20:10.087Z,19.38
2023-05-20T20:22:38.182Z,19.24
2023-05-20T20:25:07.369Z,19.27
2023-05-20T20:27:36.025Z,19.15
2023-05-20T20:30:07.099Z,19.10
2023-05-20T20:32:37.096Z,19.05
2023-05-20T20:35:07.462Z,19.04
2023-05-20T20:37:37.602Z,18.96
2023-05-20T20:40:13.546Z,18.97
2023-05-20T20:42:44.866Z,18.91
2023-05-20T20:45:15.166Z,18.71
2023-05-20T20:47:43.901Z,18.82
2023-05-20T20:50:12.584Z,18.86
2023-05-20T20:52:42.745Z,18.82
2023-05-20T20:55:11.260Z,18.67
2023-05-20T20:57:39.419Z,18.73
2023-05-20T21:00:13.418Z,18.83
2023-05-20T21:02:42.978Z,18.68
2023-05-20T21:05:11.621Z,18.64
2023-05-20T21:07:42.434Z,18.60
2023-05-20T21:10:11.471Z,18.57
2023-05-20T21:12:39.564Z,18.57
2023-05-20T21:15:09.328Z,18.58
2023-05-20T21:17:37.452Z,18.51
2023-05-20T21:20:08.785Z,18.53
2023-05-20T21:22:36.826Z,18.55
2023-05-20T21:25:06.013Z,18.38
2023-05-20T21:27:34.134Z,18.33
2023-05-20T21:30:02.464Z,18.37
2023-05-20T21:32:31.293Z,18.43
2023-05-20T21:34:59.660Z,18.45
2023-05-20T21:37:29.247Z,18.42
2023-05-20T21:39:57.631Z,18.31
2023-05-20T21:42:25.893Z,18.37
2023-05-20T21:44:54.219Z,18.33
2023-05-20T21:47:22.280Z,18.29
2023-05-20T21:49:50.673Z,18.33
2023-05-20T21:52:18.915Z,18.23
2023-05-20T21:54:48.680Z,18.22
2023-05-20T21:57:16.984Z,18.23
2023-05-20T21:59:45.366Z,18.22
2023-05-20T22:02:13.425Z,18.20
2023-05-20T22:04:42.964Z,18.11
2023-05-20T22:07:11.210Z,18.14
2023-05-20T22:09:39.757Z,18.15
2023-05-20T22:12:11.051Z,18.14
2023-05-20T22:14:39.432Z,18.06
2023-05-20T22:17:07.498Z,18.07
2023-05-20T22:19:35.784Z,18.05
2023-05-20T22:22:03.940Z,17.98
2023-05-20T22:24:32.302Z,17.95
2023-05-20T22:27:00.357Z,17.89
2023-05-20T22:29:31.963Z,17.73
2023-05-20T22:32:00.216Z,17.75
2023-05-20T22:34:28.592Z,17.77
2023-05-20T22:36:57.974Z,17.69
2023-05-20T22:39:26.316Z,17.59
2023-05-20T22:41:54.407Z,17.63
2023-05-20T22:44:22.783Z,17.58
2023-05-20T22:46:52.159Z,17.53
2023-05-20T22:49:23.705Z,17.30
2023-05-20T22:51:52.666Z,17.35
2023-05-20T22:54:21.074Z,17.38
2023-05-20T22:56:54.358Z,17.39
2023-05-20T22:59:23.927Z,17.27
2023-05-20T23:01:53.432Z,17.28
2023-05-20T23:04:21.761Z,17.30
2023-05-20T23:06:53.664Z,17.22
2023-05-20T23:09:22.292Z,17.24
2023-05-20T23:11:50.382Z,17.27
2023-05-20T23:14:19.890Z,17.28
2023-05-20T23:16:48.192Z,17.22
2023-05-20T23:19:18.131Z,17.31
2023-05-20T23:21:46.312Z,17.25
2023-05-20T23:24:15.140Z,17.26
2023-05-20T23:26:43.281Z,17.18
2023-05-20T23:29:11.674Z,17.21
2023-05-20T23:31:39.884Z,17.21
2023-05-20T23:34:08.503Z,17.20
2023-05-20T23:36:41.811Z,17.21
2023-05-20T23:39:10.325Z,17.16
2023-05-20T23:41:38.716Z,17.15
2023-05-20T23:44:07.091Z,17.14
2023-05-20T23:46:35.254Z,17.17
2023-05-20T23:49:03.636Z,17.12
2023-05-20T23:51:31.788Z,17.00
2023-05-20T23:54:01.468Z,17.02
2023-05-20T23:56:29.528Z,17.00
2023-05-20T23:58:58.604Z,16.98
